Terminal Aerodrome Forecast
Issued by NWS

Home | Current Version | Previous Version | Text Only | Print | Product List | Glossary Off
Versions: 1 2 3 4 5 6 7 8 9 10 11 12 13 14 15 16 17 18

000
FTUS43 KGRB 292300
TAFCWA
TAF
KCWA 292328Z 3000/3024 28004KT P6SM BKN025
      TEMPO 3000/3002 SCT025
     FM300600 VRB02KT P6SM SCT025 OVC140
     FM301200 VRB03KT P6SM BKN025 OVC090
     FM301900 28009KT P6SM BKN025 OVC050 PROB30 3020/3024 -SHRA
      AMD LTD TO CLD VIS AND WIND 3003/3011=

USA.gov is the U.S. government's official web portal to all federal, state and local government web resources and services.